Time;durP1;ratioP1;P1;durP2;ratioP2;P2;SDS_P1;SDS_P2;PMS_P1;PMS_P2;Temp;Humidity;BMP_temperature;BMP_pressure;BME280_temperature;BME280_humidity;BME280_pressure;Samples;Min_cycle;Max_cycle;Signal;HPM_P1;HPM_P2
2022/07/29 00:01:14;;;;;;;7.75;2.25;;;;;;;;;;5111285;28;20473;-69
2022/07/29 00:03:40;;;;;;;6.97;2.10;;;;;;;;;;5111772;28;20047;-69
2022/07/29 00:06:06;;;;;;;5.47;2.38;;;;;;;;;;5111298;28;20034;-69
2022/07/29 00:08:32;;;;;;;5.57;2.42;;;;;;;;;;5110906;28;20027;-68
2022/07/29 00:10:58;;;;;;;6.65;2.17;;;;;;;;;;5111194;28;20023;-69
2022/07/29 00:13:24;;;;;;;6.00;2.30;;;;;;;;;;5111085;28;20114;-70
2022/07/29 00:15:50;;;;;;;8.23;2.45;;;;;;;;;;5111293;28;20396;-69
2022/07/29 00:18:16;;;;;;;6.60;2.22;;;;;;;;;;5092369;28;20473;-69
2022/07/29 00:20:42;;;;;;;5.38;1.77;;;;;;;;;;5111052;28;20038;-70
2022/07/29 00:23:08;;;;;;;8.15;2.53;;;;;;;;;;5110763;28;20032;-69
2022/07/29 00:25:35;;;;;;;8.63;2.13;;;;;;;;;;5110796;28;20048;-69
2022/07/29 00:28:01;;;;;;;4.35;2.10;;;;;;;;;;5110795;28;20036;-69
2022/07/29 00:30:27;;;;;;;7.22;2.15;;;;;;;;;;5092654;28;20115;-69
2022/07/29 00:32:53;;;;;;;9.45;2.40;;;;;;;;;;5110564;28;20043;-69
2022/07/29 00:38:03;;;;;;;4.82;2.65;;;;;;;;;;5095067;28;20046;-69
2022/07/29 00:40:29;;;;;;;6.93;2.30;;;;;;;;;;5110700;28;20027;-70
2022/07/29 00:42:55;;;;;;;9.98;2.38;;;;;;;;;;5092277;28;20362;-69
2022/07/29 00:45:24;;;;;;;5.72;2.30;;;;;;;;;;5110483;28;20508;-69
2022/07/29 00:47:50;;;;;;;4.65;2.25;;;;;;;;;;5093090;28;20046;-69
2022/07/29 00:50:16;;;;;;;7.32;2.30;;;;;;;;;;5092407;28;20028;-70
2022/07/29 00:52:43;;;;;;;8.48;2.85;;;;;;;;;;5110572;28;20098;-70
2022/07/29 00:55:11;;;;;;;7.07;2.70;;;;;;;;;;5110938;28;20051;-70
2022/07/29 00:57:37;;;;;;;7.25;2.63;;;;;;;;;;5110584;28;20074;-69
2022/07/29 01:00:08;;;;;;;7.97;2.60;;;;;;;;;;5110574;28;20032;-68
2022/07/29 01:02:34;;;;;;;7.97;2.30;;;;;;;;;;5110575;28;20032;-70
2022/07/29 01:05:01;;;;;;;8.30;2.60;;;;;;;;;;5110503;28;20079;-70
2022/07/29 01:07:27;;;;;;;4.65;2.28;;;;;;;;;;5110136;28;20054;-69
2022/07/29 01:09:54;;;;;;;4.38;2.30;;;;;;;;;;5092303;28;20116;-70
2022/07/29 01:12:24;;;;;;;5.80;2.55;;;;;;;;;;5092739;28;20023;-69
2022/07/29 01:14:51;;;;;;;5.38;2.53;;;;;;;;;;5110298;28;20036;-70
2022/07/29 01:17:17;;;;;;;10.50;3.00;;;;;;;;;;5110168;28;20101;-70
2022/07/29 01:20:01;;;;;;;6.97;2.38;;;;;;;;;;5109873;28;20028;-70
2022/07/29 01:22:46;;;;;;;10.25;2.40;;;;;;;;;;5110325;28;20032;-70
2022/07/29 01:25:25;;;;;;;5.45;2.40;;;;;;;;;;5109145;28;20076;-70
2022/07/29 01:28:00;;;;;;;5.35;2.38;;;;;;;;;;5109870;28;20118;-70
2022/07/29 01:30:26;;;;;;;9.98;2.40;;;;;;;;;;5109892;28;20073;-70
2022/07/29 01:32:55;;;;;;;7.97;2.85;;;;;;;;;;5109856;28;20156;-70
2022/07/29 01:35:23;;;;;;;6.38;2.60;;;;;;;;;;5109898;28;20142;-70
2022/07/29 01:37:52;;;;;;;7.25;2.70;;;;;;;;;;5109581;28;20027;-70
2022/07/29 01:40:21;;;;;;;7.70;3.20;;;;;;;;;;5109949;28;20024;-70
2022/07/29 01:42:50;;;;;;;5.43;2.67;;;;;;;;;;5109538;28;20444;-69
2022/07/29 01:45:22;;;;;;;8.35;2.80;;;;;;;;;;5109628;28;20043;-70
2022/07/29 01:47:50;;;;;;;7.55;2.40;;;;;;;;;;5109660;28;20026;-70
2022/07/29 01:50:18;;;;;;;10.00;3.03;;;;;;;;;;5110161;28;20467;-70
2022/07/29 01:52:55;;;;;;;8.63;2.70;;;;;;;;;;5108374;28;20487;-70
2022/07/29 01:55:22;;;;;;;4.68;2.30;;;;;;;;;;5109713;28;20027;-70
2022/07/29 01:57:49;;;;;;;4.80;2.70;;;;;;;;;;5108156;28;20055;-70
2022/07/29 02:00:16;;;;;;;6.10;2.70;;;;;;;;;;5109780;28;20386;-70
2022/07/29 02:02:44;;;;;;;5.95;2.50;;;;;;;;;;5109631;28;20038;-70
2022/07/29 02:05:13;;;;;;;6.85;2.80;;;;;;;;;;5109662;28;20080;-69
2022/07/29 02:07:40;;;;;;;8.80;3.40;;;;;;;;;;5109971;28;20477;-70
2022/07/29 02:10:07;;;;;;;11.00;3.08;;;;;;;;;;5109973;28;20015;-70
2022/07/29 02:12:34;;;;;;;5.57;2.70;;;;;;;;;;5108844;28;20118;-71
2022/07/29 02:15:01;;;;;;;7.82;3.05;;;;;;;;;;5108794;28;20028;-70
2022/07/29 02:17:35;;;;;;;7.72;3.30;;;;;;;;;;5110323;28;20175;-69
2022/07/29 02:20:03;;;;;;;4.43;3.00;;;;;;;;;;5109940;28;20096;-70
2022/07/29 02:22:30;;;;;;;7.20;2.70;;;;;;;;;;5114064;28;20027;-70
2022/07/29 02:24:57;;;;;;;4.60;2.72;;;;;;;;;;5113658;28;20043;-69
2022/07/29 02:27:24;;;;;;;11.15;3.55;;;;;;;;;;5113802;28;20077;-70
2022/07/29 02:29:50;;;;;;;9.05;3.17;;;;;;;;;;5113316;28;20547;-70
2022/07/29 02:32:17;;;;;;;7.03;3.20;;;;;;;;;;5113667;28;20516;-70
2022/07/29 02:34:44;;;;;;;9.00;2.97;;;;;;;;;;5094935;28;20047;-70
2022/07/29 02:37:10;;;;;;;6.75;3.08;;;;;;;;;;5095478;28;20058;-70
2022/07/29 02:39:38;;;;;;;7.57;3.13;;;;;;;;;;5113284;28;20028;-69
2022/07/29 02:42:06;;;;;;;8.60;3.67;;;;;;;;;;5113230;28;20086;-69
2022/07/29 02:44:34;;;;;;;7.07;3.60;;;;;;;;;;5113162;28;20134;-70
2022/07/29 02:47:07;;;;;;;5.90;2.85;;;;;;;;;;5112765;28;20028;-70
2022/07/29 02:49:38;;;;;;;7.15;3.53;;;;;;;;;;5112116;28;20479;-70
2022/07/29 02:52:08;;;;;;;6.28;3.20;;;;;;;;;;5112682;28;20023;-70
2022/07/29 02:54:46;;;;;;;8.68;3.33;;;;;;;;;;5094157;28;20024;-70
2022/07/29 02:57:19;;;;;;;6.07;3.45;;;;;;;;;;5112516;28;20069;-70
2022/07/29 02:59:46;;;;;;;7.05;3.45;;;;;;;;;;5112009;28;20107;-70
2022/07/29 03:02:13;;;;;;;6.90;3.60;;;;;;;;;;5112365;28;20050;-70
2022/07/29 03:04:40;;;;;;;6.70;4.03;;;;;;;;;;5112211;28;20092;-70
2022/07/29 03:07:06;;;;;;;7.93;3.80;;;;;;;;;;5112234;28;20022;-70
2022/07/29 03:09:33;;;;;;;6.40;3.72;;;;;;;;;;5094018;28;20516;-70
2022/07/29 03:12:00;;;;;;;9.65;3.80;;;;;;;;;;5112491;28;20027;-70
2022/07/29 03:14:26;;;;;;;5.47;3.53;;;;;;;;;;5110897;27;20030;-70
2022/07/29 03:16:53;;;;;;;6.57;3.50;;;;;;;;;;5112186;28;20024;-70
2022/07/29 03:19:20;;;;;;;12.68;4.05;;;;;;;;;;5111785;28;20066;-70
2022/07/29 03:21:46;;;;;;;7.45;3.80;;;;;;;;;;5112120;28;20044;-70
2022/07/29 03:24:24;;;;;;;7.97;3.72;;;;;;;;;;5112199;28;20020;-70
2022/07/29 03:26:51;;;;;;;6.90;3.50;;;;;;;;;;5111742;28;20493;-71
2022/07/29 03:29:17;;;;;;;6.20;3.53;;;;;;;;;;5112077;28;20492;-69
2022/07/29 03:31:43;;;;;;;6.55;3.40;;;;;;;;;;5111832;28;20635;-69
2022/07/29 03:34:09;;;;;;;8.20;3.35;;;;;;;;;;5112371;28;20086;-69
2022/07/29 03:36:35;;;;;;;9.45;3.72;;;;;;;;;;5112388;28;20024;-69
2022/07/29 03:39:02;;;;;;;8.85;3.70;;;;;;;;;;5112019;28;20027;-69
2022/07/29 03:41:29;;;;;;;5.18;3.38;;;;;;;;;;5112257;28;20118;-70
2022/07/29 03:43:56;;;;;;;6.88;3.40;;;;;;;;;;5093658;28;20032;-70
2022/07/29 03:46:23;;;;;;;11.48;3.58;;;;;;;;;;5111975;28;20058;-70
2022/07/29 03:48:51;;;;;;;8.63;4.00;;;;;;;;;;5111735;28;20111;-70
2022/07/29 03:51:17;;;;;;;5.32;3.22;;;;;;;;;;5111981;28;20031;-70
2022/07/29 03:53:43;;;;;;;7.40;3.38;;;;;;;;;;5093392;28;20032;-70
2022/07/29 03:56:10;;;;;;;9.30;4.00;;;;;;;;;;5112047;28;20039;-70
2022/07/29 03:58:37;;;;;;;8.30;3.85;;;;;;;;;;5111258;28;20473;-70
2022/07/29 04:01:03;;;;;;;8.20;3.63;;;;;;;;;;5111219;28;20036;-70
2022/07/29 04:03:29;;;;;;;8.35;4.00;;;;;;;;;;5111430;28;20036;-69
2022/07/29 04:06:06;;;;;;;7.32;3.80;;;;;;;;;;5111298;28;20484;-69
2022/07/29 04:08:33;;;;;;;12.95;3.70;;;;;;;;;;5110897;28;20051;-69
2022/07/29 04:10:59;;;;;;;7.72;3.83;;;;;;;;;;5092549;28;20664;-69
2022/07/29 04:13:25;;;;;;;8.68;3.78;;;;;;;;;;5111173;28;20031;-69
2022/07/29 04:15:51;;;;;;;7.25;3.42;;;;;;;;;;5092658;28;20038;-70
2022/07/29 04:18:17;;;;;;;7.43;3.50;;;;;;;;;;5110883;28;20376;-70
2022/07/29 04:20:43;;;;;;;6.93;3.70;;;;;;;;;;5110834;28;20042;-70
2022/07/29 04:23:09;;;;;;;7.13;5.03;;;;;;;;;;5110783;28;20016;-70
2022/07/29 04:25:38;;;;;;;9.60;3.83;;;;;;;;;;5111150;28;20046;-70
2022/07/29 04:28:04;;;;;;;6.38;3.42;;;;;;;;;;5111141;28;20032;-70
2022/07/29 04:30:30;;;;;;;6.72;2.83;;;;;;;;;;5110895;28;20019;-70
2022/07/29 04:32:56;;;;;;;7.05;3.22;;;;;;;;;;5110856;28;20106;-69
2022/07/29 04:35:22;;;;;;;13.75;3.28;;;;;;;;;;5110818;28;20062;-69
2022/07/29 04:37:48;;;;;;;13.60;3.30;;;;;;;;;;5110527;28;20043;-70
2022/07/29 04:40:14;;;;;;;5.78;3.25;;;;;;;;;;5092452;28;20028;-69
2022/07/29 04:42:41;;;;;;;15.20;3.38;;;;;;;;;;5091883;28;20027;-70
2022/07/29 04:45:07;;;;;;;6.07;3.00;;;;;;;;;;5109935;28;20051;-70
2022/07/29 04:47:33;;;;;;;9.98;3.53;;;;;;;;;;5110947;28;20031;-70
2022/07/29 04:49:59;;;;;;;8.45;3.60;;;;;;;;;;5110661;28;20063;-70
2022/07/29 04:52:25;;;;;;;6.55;2.80;;;;;;;;;;5110747;28;20051;-70
2022/07/29 04:54:51;;;;;;;8.10;2.95;;;;;;;;;;5110811;28;20140;-70
2022/07/29 04:57:17;;;;;;;8.13;3.13;;;;;;;;;;5110651;28;20495;-70
2022/07/29 04:59:43;;;;;;;7.07;2.95;;;;;;;;;;5110324;28;20032;-69
2022/07/29 05:02:09;;;;;;;8.82;3.20;;;;;;;;;;5111113;28;20023;-69
2022/07/29 05:04:35;;;;;;;7.70;3.60;;;;;;;;;;5110450;28;20028;-70
2022/07/29 05:07:01;;;;;;;12.57;4.10;;;;;;;;;;5110362;28;20020;-69
2022/07/29 05:09:27;;;;;;;7.65;3.63;;;;;;;;;;5110822;28;20024;-69
2022/07/29 05:11:53;;;;;;;6.53;4.05;;;;;;;;;;5110462;28;20397;-68
2022/07/29 05:14:19;;;;;;;6.47;3.53;;;;;;;;;;5091860;28;20062;-70
2022/07/29 05:16:45;;;;;;;10.75;3.35;;;;;;;;;;5110075;28;20077;-68
2022/07/29 05:19:11;;;;;;;7.35;3.25;;;;;;;;;;5109752;28;20024;-69
2022/07/29 05:21:38;;;;;;;13.27;3.47;;;;;;;;;;5109866;28;20028;-69
2022/07/29 05:24:04;;;;;;;13.15;3.20;;;;;;;;;;5110027;28;20035;-69
2022/07/29 05:26:30;;;;;;;19.55;4.15;;;;;;;;;;5110111;28;20050;-70
2022/07/29 05:28:56;;;;;;;50.33;5.53;;;;;;;;;;5091944;28;20104;-70
2022/07/29 05:31:22;;;;;;;10.82;2.90;;;;;;;;;;5091599;28;20023;-70
2022/07/29 05:33:48;;;;;;;7.40;2.80;;;;;;;;;;5109902;28;20023;-69
2022/07/29 05:36:15;;;;;;;7.45;2.90;;;;;;;;;;5110059;28;20036;-69
2022/07/29 05:38:41;;;;;;;8.68;2.85;;;;;;;;;;5110263;28;20052;-70
2022/07/29 05:41:07;;;;;;;10.80;3.40;;;;;;;;;;5109643;28;20034;-68
2022/07/29 05:43:33;;;;;;;10.40;3.45;;;;;;;;;;5110002;28;20031;-70
2022/07/29 05:45:59;;;;;;;10.70;3.15;;;;;;;;;;5109502;28;20075;-68
2022/07/29 05:48:25;;;;;;;28.60;4.70;;;;;;;;;;5091600;28;20054;-71
2022/07/29 05:50:51;;;;;;;9.35;2.97;;;;;;;;;;5109254;28;20492;-69
2022/07/29 05:53:17;;;;;;;10.65;3.17;;;;;;;;;;5109721;28;20024;-69
2022/07/29 05:55:43;;;;;;;8.50;2.85;;;;;;;;;;5113138;28;20028;-71
2022/07/29 05:58:09;;;;;;;14.13;3.10;;;;;;;;;;5095285;28;20393;-70
2022/07/29 06:00:35;;;;;;;6.43;3.05;;;;;;;;;;5113727;28;20032;-70
2022/07/29 06:03:01;;;;;;;6.53;2.80;;;;;;;;;;5114303;28;20057;-70
2022/07/29 06:05:27;;;;;;;15.23;3.13;;;;;;;;;;5114077;28;20485;-70
2022/07/29 06:07:53;;;;;;;9.07;2.88;;;;;;;;;;5113799;28;20024;-70
2022/07/29 06:10:19;;;;;;;16.58;3.17;;;;;;;;;;5113771;28;20111;-70
2022/07/29 06:12:45;;;;;;;14.25;3.60;;;;;;;;;;5114143;28;20541;-70
2022/07/29 06:15:12;;;;;;;13.05;3.28;;;;;;;;;;5113952;28;20078;-69
2022/07/29 06:17:38;;;;;;;16.27;3.42;;;;;;;;;;5113684;28;20511;-69
2022/07/29 06:20:04;;;;;;;7.28;3.13;;;;;;;;;;5113301;28;20031;-69
2022/07/29 06:22:30;;;;;;;8.15;2.80;;;;;;;;;;5113696;28;20042;-71
2022/07/29 06:24:56;;;;;;;18.42;3.47;;;;;;;;;;5113991;28;20023;-68
2022/07/29 06:27:22;;;;;;;9.18;2.53;;;;;;;;;;5095478;28;20036;-69
2022/07/29 06:29:48;;;;;;;10.00;2.90;;;;;;;;;;5113515;28;20034;-70
2022/07/29 06:32:14;;;;;;;8.63;2.58;;;;;;;;;;5113393;28;20480;-70
2022/07/29 06:34:40;;;;;;;22.98;4.32;;;;;;;;;;5113345;28;20446;-68
2022/07/29 06:37:09;;;;;;;12.40;2.55;;;;;;;;;;5113360;28;20051;-69
2022/07/29 06:39:36;;;;;;;5.07;1.80;;;;;;;;;;5113242;28;20111;-69
2022/07/29 06:42:03;;;;;;;9.65;2.72;;;;;;;;;;5112838;28;20024;-69
2022/07/29 06:44:29;;;;;;;10.07;2.63;;;;;;;;;;5094809;28;20043;-68
2022/07/29 06:46:55;;;;;;;8.18;2.60;;;;;;;;;;5113158;28;20079;-69
2022/07/29 06:49:23;;;;;;;10.80;2.58;;;;;;;;;;5113735;28;20036;-69
2022/07/29 06:51:49;;;;;;;6.50;2.17;;;;;;;;;;5112954;28;20064;-70
2022/07/29 06:54:15;;;;;;;6.78;2.33;;;;;;;;;;5112500;28;20019;-70
2022/07/29 06:56:42;;;;;;;6.75;2.47;;;;;;;;;;5094392;28;20791;-70
2022/07/29 06:59:09;;;;;;;11.15;2.58;;;;;;;;;;5114675;28;20035;-70
2022/07/29 07:01:42;;;;;;;8.10;2.55;;;;;;;;;;5112315;28;20042;-70
2022/07/29 07:04:09;;;;;;;9.48;2.75;;;;;;;;;;5112581;28;20030;-71
2022/07/29 07:06:35;;;;;;;14.93;3.10;;;;;;;;;;5111915;28;20028;-71
2022/07/29 07:09:01;;;;;;;8.32;3.60;;;;;;;;;;5112301;28;20102;-71
2022/07/29 07:11:27;;;;;;;11.13;3.08;;;;;;;;;;5093702;28;20035;-70
2022/07/29 07:13:54;;;;;;;9.60;3.53;;;;;;;;;;5112552;28;20031;-70
2022/07/29 07:16:20;;;;;;;10.95;3.60;;;;;;;;;;5094041;28;20115;-70
2022/07/29 07:18:46;;;;;;;4.68;3.28;;;;;;;;;;5112091;28;20057;-69
2022/07/29 07:21:12;;;;;;;5.72;2.85;;;;;;;;;;5075650;28;20549;-69
2022/07/29 07:23:38;;;;;;;5.70;2.88;;;;;;;;;;5091643;28;20449;-69
2022/07/29 07:26:05;;;;;;;7.10;3.25;;;;;;;;;;5092260;28;20036;-70
2022/07/29 07:28:32;;;;;;;19.48;3.38;;;;;;;;;;5092233;28;20489;-69
2022/07/29 07:30:58;;;;;;;6.38;3.50;;;;;;;;;;5092873;28;20297;-69
2022/07/29 07:33:24;;;;;;;6.00;2.90;;;;;;;;;;5093128;28;20024;-68
2022/07/29 07:35:50;;;;;;;6.85;2.70;;;;;;;;;;5093214;28;20028;-69
2022/07/29 07:38:16;;;;;;;6.10;2.38;;;;;;;;;;5091804;28;20059;-70
2022/07/29 07:40:42;;;;;;;7.82;2.40;;;;;;;;;;5093348;28;20031;-70
2022/07/29 07:43:08;;;;;;;8.57;2.53;;;;;;;;;;5092482;28;20032;-70
2022/07/29 07:45:36;;;;;;;10.60;2.58;;;;;;;;;;5094054;28;20051;-70
2022/07/29 07:48:03;;;;;;;3.97;2.33;;;;;;;;;;5093381;28;20481;-70
2022/07/29 07:50:29;;;;;;;6.43;2.70;;;;;;;;;;5091998;28;20024;-70
2022/07/29 07:52:59;;;;;;;12.52;2.97;;;;;;;;;;5092029;28;20024;-69
2022/07/29 07:55:25;;;;;;;7.22;2.70;;;;;;;;;;5091801;28;20031;-70
2022/07/29 07:57:52;;;;;;;4.30;2.35;;;;;;;;;;5090846;28;20144;-70
2022/07/29 08:00:18;;;;;;;6.15;2.65;;;;;;;;;;5091129;28;20379;-69
2022/07/29 08:02:44;;;;;;;10.60;2.58;;;;;;;;;;5091060;28;20024;-68
2022/07/29 08:05:12;;;;;;;11.90;2.78;;;;;;;;;;5090848;28;20111;-69
2022/07/29 08:07:38;;;;;;;8.85;3.00;;;;;;;;;;5073055;28;20024;-69
2022/07/29 08:10:04;;;;;;;8.18;2.65;;;;;;;;;;5090628;28;20028;-69
2022/07/29 08:12:30;;;;;;;8.50;2.92;;;;;;;;;;5090653;28;20024;-69
2022/07/29 08:14:56;;;;;;;6.72;3.00;;;;;;;;;;5091185;28;20020;-70
2022/07/29 08:17:22;;;;;;;5.53;2.47;;;;;;;;;;5089406;28;20032;-70
2022/07/29 08:19:49;;;;;;;7.35;2.75;;;;;;;;;;5096870;28;20043;-70
2022/07/29 08:22:15;;;;;;;9.55;2.90;;;;;;;;;;5110643;28;20027;-70
2022/07/29 08:24:52;;;;;;;8.73;2.90;;;;;;;;;;5110863;28;20031;-70
2022/07/29 08:27:18;;;;;;;8.30;3.15;;;;;;;;;;5092660;28;20411;-69
2022/07/29 08:29:44;;;;;;;8.02;3.22;;;;;;;;;;5111059;28;20031;-69
2022/07/29 08:32:10;;;;;;;9.15;2.90;;;;;;;;;;5110801;28;20497;-68
2022/07/29 08:34:36;;;;;;;9.65;3.53;;;;;;;;;;5111166;28;20023;-69
2022/07/29 08:37:02;;;;;;;5.38;2.75;;;;;;;;;;5092859;28;20513;-69
2022/07/29 08:39:28;;;;;;;9.18;3.08;;;;;;;;;;5110803;28;20103;-69
2022/07/29 08:41:54;;;;;;;8.15;3.00;;;;;;;;;;5111789;28;20031;-69
2022/07/29 08:44:24;;;;;;;6.35;2.90;;;;;;;;;;5110753;28;20100;-69
2022/07/29 08:46:50;;;;;;;11.52;3.00;;;;;;;;;;5110910;28;20204;-69
2022/07/29 08:49:18;;;;;;;6.10;2.95;;;;;;;;;;5111807;28;20097;-69
2022/07/29 08:51:44;;;;;;;5.88;2.90;;;;;;;;;;5110247;28;20020;-68
2022/07/29 08:54:11;;;;;;;7.57;2.78;;;;;;;;;;5110341;28;20106;-69
2022/07/29 08:56:38;;;;;;;8.50;3.00;;;;;;;;;;5111161;28;20055;-70
2022/07/29 08:59:05;;;;;;;11.18;2.97;;;;;;;;;;5110677;28;20114;-69
2022/07/29 09:01:33;;;;;;;7.18;3.05;;;;;;;;;;5110571;28;20077;-70
2022/07/29 09:04:00;;;;;;;9.45;2.70;;;;;;;;;;5110831;28;20063;-69
2022/07/29 09:06:31;;;;;;;6.13;2.45;;;;;;;;;;5111177;28;20038;-70
2022/07/29 09:08:58;;;;;;;5.70;2.88;;;;;;;;;;5110996;28;20032;-69
2022/07/29 09:11:25;;;;;;;10.05;3.00;;;;;;;;;;5110657;28;20020;-69
2022/07/29 09:13:51;;;;;;;8.00;2.80;;;;;;;;;;5092416;28;20028;-70
2022/07/29 09:16:17;;;;;;;9.65;3.72;;;;;;;;;;5110771;28;20028;-71
2022/07/29 09:18:44;;;;;;;5.82;2.60;;;;;;;;;;5092703;28;20394;-70
2022/07/29 09:24:00;;;;;;;11.85;3.42;;;;;;;;;;5110619;28;20444;-69
2022/07/29 09:26:30;;;;;;;14.57;3.00;;;;;;;;;;5092572;28;20043;-70
2022/07/29 09:28:56;;;;;;;7.22;2.63;;;;;;;;;;5110920;28;20069;-70
2022/07/29 09:31:36;;;;;;;9.60;3.05;;;;;;;;;;5114444;28;20031;-68
2022/07/29 09:34:03;;;;;;;16.70;4.93;;;;;;;;;;5114567;28;20043;-70
2022/07/29 09:36:29;;;;;;;11.15;2.83;;;;;;;;;;5114441;28;20738;-70
2022/07/29 09:39:02;;;;;;;7.28;2.75;;;;;;;;;;5114438;28;20039;-69
2022/07/29 09:41:29;;;;;;;6.97;3.08;;;;;;;;;;5114374;28;20027;-69
2022/07/29 09:43:58;;;;;;;21.67;3.78;;;;;;;;;;5095583;28;20030;-70
2022/07/29 09:46:25;;;;;;;8.93;2.83;;;;;;;;;;5114075;28;20105;-70
2022/07/29 09:49:08;;;;;;;12.68;2.78;;;;;;;;;;5113996;28;20076;-70
2022/07/29 09:51:34;;;;;;;8.48;2.65;;;;;;;;;;5113779;28;20099;-70
2022/07/29 09:54:03;;;;;;;6.45;2.40;;;;;;;;;;5114097;28;20028;-70
2022/07/29 09:56:42;;;;;;;9.75;3.17;;;;;;;;;;5114116;28;20503;-70
2022/07/29 09:59:10;;;;;;;9.18;2.78;;;;;;;;;;5114082;28;20031;-70
2022/07/29 10:01:36;;;;;;;8.90;3.42;;;;;;;;;;5113830;28;20079;-69
2022/07/29 10:04:03;;;;;;;7.03;3.00;;;;;;;;;;5113655;28;20489;-70
2022/07/29 10:06:29;;;;;;;11.52;2.97;;;;;;;;;;5113895;28;20119;-68
2022/07/29 10:08:55;;;;;;;5.50;2.95;;;;;;;;;;5113569;28;20027;-70
2022/07/29 10:11:21;;;;;;;6.50;2.60;;;;;;;;;;5113967;28;20517;-68
2022/07/29 10:13:48;;;;;;;10.30;2.92;;;;;;;;;;5113579;28;20055;-69
2022/07/29 10:16:15;;;;;;;4.55;2.65;;;;;;;;;;5113561;28;20028;-70
2022/07/29 10:18:42;;;;;;;7.43;3.13;;;;;;;;;;5113296;28;20036;-69
2022/07/29 10:21:09;;;;;;;9.02;3.70;;;;;;;;;;5113011;28;20067;-70
2022/07/29 10:23:35;;;;;;;12.57;2.78;;;;;;;;;;5112999;28;20492;-69
2022/07/29 10:26:03;;;;;;;7.90;3.17;;;;;;;;;;5095226;28;20051;-70
2022/07/29 10:28:30;;;;;;;10.05;3.25;;;;;;;;;;5095476;28;20031;-69
2022/07/29 10:31:00;;;;;;;8.48;3.22;;;;;;;;;;5113247;28;20028;-69
2022/07/29 10:33:26;;;;;;;;;;;;;;;;;;5113665;28;20024;-69
2022/07/29 10:36:02;;;;;;;9.07;3.20;;;;;;;;;;5112898;28;19911;-69
2022/07/29 10:38:45;;;;;;;9.20;4.00;;;;;;;;;;5113296;28;20032;-68
2022/07/29 10:41:26;;;;;;;14.95;3.35;;;;;;;;;;5111939;28;20081;-69
2022/07/29 10:43:53;;;;;;;9.93;3.65;;;;;;;;;;5094453;28;20058;-69
2022/07/29 10:46:20;;;;;;;11.50;3.70;;;;;;;;;;5113350;28;20024;-69
2022/07/29 10:49:04;;;;;;;8.35;3.28;;;;;;;;;;5113196;28;20059;-69
2022/07/29 10:51:49;;;;;;;8.40;3.53;;;;;;;;;;5113068;28;20027;-69
2022/07/29 10:54:15;;;;;;;12.10;3.72;;;;;;;;;;5094926;28;20081;-69
2022/07/29 10:56:41;;;;;;;6.85;3.40;;;;;;;;;;5112083;28;20034;-70
2022/07/29 10:59:19;;;;;;;8.23;3.55;;;;;;;;;;5112929;28;20035;-69
2022/07/29 11:01:46;;;;;;;5.35;3.35;;;;;;;;;;5113034;28;20016;-69
2022/07/29 11:04:12;;;;;;;5.47;3.78;;;;;;;;;;5113214;28;20397;-70
2022/07/29 11:06:57;;;;;;;10.13;3.60;;;;;;;;;;5113070;28;20576;-70
2022/07/29 11:09:23;;;;;;;13.88;4.40;;;;;;;;;;5113923;28;20020;-69
2022/07/29 11:11:49;;;;;;;7.18;3.55;;;;;;;;;;5114121;28;20042;-69
2022/07/29 11:14:17;;;;;;;7.05;3.67;;;;;;;;;;5114594;28;20029;-69
2022/07/29 11:17:01;;;;;;;7.50;3.80;;;;;;;;;;5095322;28;20032;-69
2022/07/29 11:19:27;;;;;;;10.02;3.60;;;;;;;;;;5110560;28;20302;-69
2022/07/29 11:21:54;;;;;;;8.02;3.50;;;;;;;;;;5092091;28;20031;-69
2022/07/29 11:24:23;;;;;;;9.75;3.92;;;;;;;;;;5091849;28;20032;-69
2022/07/29 11:27:07;;;;;;;9.38;3.00;;;;;;;;;;5091933;28;20036;-68
2022/07/29 11:29:35;;;;;;;14.68;4.25;;;;;;;;;;5091967;28;20032;-69
2022/07/29 11:32:15;;;;;;;6.82;3.20;;;;;;;;;;5091443;28;20020;-69
2022/07/29 11:34:41;;;;;;;8.82;3.97;;;;;;;;;;5073643;28;20151;-70
2022/07/29 11:37:11;;;;;;;8.27;3.40;;;;;;;;;;5091495;28;20425;-70
2022/07/29 11:39:40;;;;;;;6.55;3.17;;;;;;;;;;5091817;28;20085;-70
2022/07/29 11:42:24;;;;;;;12.48;3.08;;;;;;;;;;5090900;28;20040;-70
2022/07/29 11:45:00;;;;;;;8.98;3.28;;;;;;;;;;5091002;28;20048;-68
2022/07/29 11:47:27;;;;;;;12.23;3.10;;;;;;;;;;5091656;28;20024;-70
2022/07/29 11:49:54;;;;;;;9.70;3.15;;;;;;;;;;5091330;28;20020;-69
2022/07/29 11:52:20;;;;;;;12.35;3.83;;;;;;;;;;5091002;28;20061;-70
2022/07/29 11:54:50;;;;;;;13.40;3.63;;;;;;;;;;5091066;28;20027;-69
2022/07/29 11:57:20;;;;;;;9.10;2.83;;;;;;;;;;5091098;28;20522;-69
2022/07/29 11:59:47;;;;;;;8.20;3.10;;;;;;;;;;5089833;28;20044;-70
2022/07/29 12:02:14;;;;;;;12.25;2.70;;;;;;;;;;5090707;28;20030;-70
2022/07/29 12:04:50;;;;;;;7.32;3.30;;;;;;;;;;5091165;28;20028;-70
2022/07/29 12:07:16;;;;;;;8.68;3.13;;;;;;;;;;5091147;28;20386;-70
2022/07/29 12:09:50;;;;;;;6.50;2.72;;;;;;;;;;5091434;28;20103;-71
2022/07/29 12:12:17;;;;;;;8.20;3.20;;;;;;;;;;5091125;28;20020;-70
2022/07/29 12:14:46;;;;;;;9.15;2.90;;;;;;;;;;5073157;28;20115;-70
2022/07/29 12:17:32;;;;;;;9.02;2.40;;;;;;;;;;5091734;28;20044;-70
2022/07/29 12:19:59;;;;;;;7.30;2.70;;;;;;;;;;5100634;28;20028;-71
2022/07/29 12:22:33;;;;;;;8.63;2.78;;;;;;;;;;5114944;28;20027;-70
2022/07/29 12:25:09;;;;;;;7.88;3.25;;;;;;;;;;5113603;28;20024;-69
2022/07/29 12:27:39;;;;;;;4.57;2.80;;;;;;;;;;5112081;28;20043;-70
2022/07/29 12:30:06;;;;;;;10.93;3.93;;;;;;;;;;5111520;28;20051;-70
2022/07/29 12:32:33;;;;;;;9.13;2.92;;;;;;;;;;5093276;28;20027;-70
2022/07/29 12:35:00;;;;;;;8.50;2.90;;;;;;;;;;5111467;28;20054;-70
2022/07/29 12:37:26;;;;;;;11.65;2.97;;;;;;;;;;5093576;28;20027;-69
2022/07/29 12:39:52;;;;;;;7.35;2.60;;;;;;;;;;5111314;28;20392;-70
2022/07/29 12:42:18;;;;;;;6.07;2.65;;;;;;;;;;5115166;28;20102;-69
2022/07/29 12:44:48;;;;;;;6.15;2.40;;;;;;;;;;5112143;28;20146;-70
2022/07/29 12:47:15;;;;;;;4.72;2.40;;;;;;;;;;5111704;28;20480;-70
2022/07/29 12:49:41;;;;;;;10.05;2.85;;;;;;;;;;5110504;28;20034;-69
2022/07/29 12:52:25;;;;;;;13.88;2.83;;;;;;;;;;5110464;28;20028;-71
2022/07/29 12:54:51;;;;;;;6.15;2.38;;;;;;;;;;5110388;28;20470;-71
2022/07/29 12:57:17;;;;;;;11.63;2.50;;;;;;;;;;5092368;28;20477;-71
2022/07/29 12:59:44;;;;;;;7.95;2.50;;;;;;;;;;5092464;28;20073;-70
2022/07/29 13:02:22;;;;;;;8.27;2.85;;;;;;;;;;5110154;28;20049;-70
2022/07/29 13:04:56;;;;;;;6.28;2.60;;;;;;;;;;5109827;28;20047;-71
2022/07/29 13:07:27;;;;;;;7.85;3.03;;;;;;;;;;5110497;28;20019;-70
2022/07/29 13:09:53;;;;;;;10.52;2.75;;;;;;;;;;5110290;28;20050;-70
2022/07/29 13:12:20;;;;;;;9.20;2.67;;;;;;;;;;5110273;28;20096;-71
2022/07/29 13:14:49;;;;;;;9.68;2.88;;;;;;;;;;5110347;28;20051;-70
2022/07/29 13:17:20;;;;;;;13.20;3.03;;;;;;;;;;5110210;28;20020;-70
2022/07/29 13:19:48;;;;;;;5.10;2.20;;;;;;;;;;5104227;28;20028;-70
2022/07/29 13:22:16;;;;;;;5.57;2.55;;;;;;;;;;5088561;28;20123;-70
2022/07/29 13:24:48;;;;;;;7.72;2.30;;;;;;;;;;5089775;28;20024;-70
2022/07/29 13:27:15;;;;;;;5.45;2.35;;;;;;;;;;5090048;28;20131;-70
2022/07/29 13:29:41;;;;;;;6.32;2.15;;;;;;;;;;5090183;28;20027;-70
2022/07/29 13:32:07;;;;;;;6.63;2.50;;;;;;;;;;5090231;28;20043;-71
2022/07/29 13:34:33;;;;;;;10.25;2.90;;;;;;;;;;5090605;28;20028;-70
2022/07/29 13:36:59;;;;;;;9.43;2.60;;;;;;;;;;5091789;28;20021;-69
2022/07/29 13:39:25;;;;;;;12.68;2.70;;;;;;;;;;5091232;28;20397;-71
2022/07/29 13:41:52;;;;;;;12.75;2.90;;;;;;;;;;5091484;28;20024;-71
2022/07/29 13:44:18;;;;;;;6.13;2.80;;;;;;;;;;5091992;28;20045;-71
2022/07/29 13:46:44;;;;;;;10.95;2.85;;;;;;;;;;5092572;28;20062;-71
2022/07/29 13:49:11;;;;;;;8.98;2.70;;;;;;;;;;5091610;28;20036;-71
2022/07/29 13:51:37;;;;;;;8.93;2.80;;;;;;;;;;5092702;28;20519;-70
2022/07/29 13:54:03;;;;;;;8.52;2.47;;;;;;;;;;5091685;28;20035;-70
2022/07/29 13:56:29;;;;;;;8.48;2.72;;;;;;;;;;5074410;28;20089;-70
2022/07/29 13:58:55;;;;;;;10.32;2.38;;;;;;;;;;5093809;28;20034;-70
2022/07/29 14:01:22;;;;;;;11.80;2.42;;;;;;;;;;5073868;28;20485;-70
2022/07/29 14:03:48;;;;;;;5.20;2.08;;;;;;;;;;5091219;28;20137;-70
2022/07/29 14:06:14;;;;;;;9.38;2.50;;;;;;;;;;5094443;28;20323;-70
2022/07/29 14:08:40;;;;;;;7.80;2.42;;;;;;;;;;5091351;28;20028;-70
2022/07/29 14:11:06;;;;;;;8.80;2.08;;;;;;;;;;5089931;28;20017;-69
2022/07/29 14:13:32;;;;;;;7.20;2.28;;;;;;;;;;5089768;28;20025;-70
2022/07/29 14:15:58;;;;;;;6.97;1.98;;;;;;;;;;5091404;28;20032;-70
2022/07/29 14:18:24;;;;;;;5.85;1.98;;;;;;;;;;5093130;28;20028;-70
2022/07/29 14:20:50;;;;;;;8.93;2.10;;;;;;;;;;5123625;27;20034;-70
2022/07/29 14:23:18;;;;;;;6.05;1.80;;;;;;;;;;5134302;27;20026;-70
2022/07/29 14:25:44;;;;;;;3.88;2.10;;;;;;;;;;5134217;27;20118;-70
2022/07/29 14:28:10;;;;;;;6.80;2.38;;;;;;;;;;5133944;27;20110;-71
2022/07/29 14:30:36;;;;;;;8.10;2.20;;;;;;;;;;5133898;27;20030;-71
2022/07/29 14:33:02;;;;;;;7.53;2.20;;;;;;;;;;5115331;27;20028;-70
2022/07/29 14:35:28;;;;;;;4.13;2.00;;;;;;;;;;5133826;27;20112;-71
2022/07/29 14:37:54;;;;;;;11.07;2.60;;;;;;;;;;5133947;27;20058;-70
2022/07/29 14:40:20;;;;;;;5.82;2.58;;;;;;;;;;5133662;27;20027;-70
2022/07/29 14:42:46;;;;;;;9.95;2.60;;;;;;;;;;5115163;27;20031;-69
2022/07/29 14:45:13;;;;;;;6.38;2.50;;;;;;;;;;5133043;27;20054;-71
2022/07/29 14:47:39;;;;;;;8.65;2.38;;;;;;;;;;5134041;27;20027;-70
2022/07/29 14:50:05;;;;;;;11.63;3.10;;;;;;;;;;5133761;27;20022;-70